sensor_id;sensor_type;location;lat;lon;timestamp;pressure;altitude;pressure_sealevel;temperature;humidity
75089;BME280;63673;49.928;8.150;2023-07-24T00:00:25;983.16;;;18.48;100
75089;BME280;63673;49.928;8.150;2023-07-24T00:01:26;983.21;;;18.48;100
75089;BME280;63673;49.928;8.150;2023-07-24T00:02:28;983.16;;;18.47;100
75089;BME280;63673;49.928;8.150;2023-07-24T00:03:30;983.15;;;18.46;100
75089;BME280;63673;49.928;8.150;2023-07-24T00:04:32;983.14;;;18.45;100
75089;BME280;63673;49.928;8.150;2023-07-24T00:05:34;983.14;;;18.44;100
75089;BME280;63673;49.928;8.150;2023-07-24T00:06:35;983.15;;;18.44;100
75089;BME280;63673;49.928;8.150;2023-07-24T00:07:37;983.12;;;18.43;100
75089;BME280;63673;49.928;8.150;2023-07-24T00:08:39;983.12;;;18.42;100
75089;BME280;63673;49.928;8.150;2023-07-24T00:09:40;983.06;;;18.41;100
75089;BME280;63673;49.928;8.150;2023-07-24T00:10:42;982.99;;;18.4;100
75089;BME280;63673;49.928;8.150;2023-07-24T00:11:44;983.05;;;18.39;100
75089;BME280;63673;49.928;8.150;2023-07-24T00:12:45;983.02;;;18.38;100
75089;BME280;63673;49.928;8.150;2023-07-24T00:13:47;983.03;;;18.37;100
75089;BME280;63673;49.928;8.150;2023-07-24T00:14:49;983;;;18.37;100
75089;BME280;63673;49.928;8.150;2023-07-24T00:15:51;982.99;;;18.37;100
75089;BME280;63673;49.928;8.150;2023-07-24T00:16:52;983;;;18.35;100
75089;BME280;63673;49.928;8.150;2023-07-24T00:17:54;982.99;;;18.35;100
75089;BME280;63673;49.928;8.150;2023-07-24T00:18:56;983;;;18.34;100
75089;BME280;63673;49.928;8.150;2023-07-24T00:19:57;982.97;;;18.34;100
75089;BME280;63673;49.928;8.150;2023-07-24T00:20:59;982.98;;;18.34;100
75089;BME280;63673;49.928;8.150;2023-07-24T00:22:01;982.98;;;18.33;100
75089;BME280;63673;49.928;8.150;2023-07-24T00:23:03;982.97;;;18.33;100
75089;BME280;63673;49.928;8.150;2023-07-24T00:24:05;982.97;;;18.33;100
75089;BME280;63673;49.928;8.150;2023-07-24T00:25:06;982.95;;;18.32;100
75089;BME280;63673;49.928;8.150;2023-07-24T00:26:08;982.95;;;18.32;100
75089;BME280;63673;49.928;8.150;2023-07-24T00:27:10;982.93;;;18.32;100
75089;BME280;63673;49.928;8.150;2023-07-24T00:28:11;982.91;;;18.32;100
75089;BME280;63673;49.928;8.150;2023-07-24T00:29:13;982.96;;;18.32;100
75089;BME280;63673;49.928;8.150;2023-07-24T00:30:15;982.96;;;18.32;100
75089;BME280;63673;49.928;8.150;2023-07-24T00:31:17;982.97;;;18.32;100
75089;BME280;63673;49.928;8.150;2023-07-24T00:32:18;982.97;;;18.32;100
75089;BME280;63673;49.928;8.150;2023-07-24T00:33:20;982.95;;;18.32;100
75089;BME280;63673;49.928;8.150;2023-07-24T00:34:22;982.98;;;18.32;100
75089;BME280;63673;49.928;8.150;2023-07-24T00:35:24;982.9;;;18.32;100
75089;BME280;63673;49.928;8.150;2023-07-24T00:36:25;982.88;;;18.32;100
75089;BME280;63673;49.928;8.150;2023-07-24T00:37:27;982.82;;;18.32;100
75089;BME280;63673;49.928;8.150;2023-07-24T00:38:29;982.8;;;18.33;100
75089;BME280;63673;49.928;8.150;2023-07-24T00:39:30;982.77;;;18.32;100
75089;BME280;63673;49.928;8.150;2023-07-24T00:40:32;982.76;;;18.32;100
75089;BME280;63673;49.928;8.150;2023-07-24T00:41:34;982.73;;;18.32;100
75089;BME280;63673;49.928;8.150;2023-07-24T00:42:36;982.79;;;18.32;100
75089;BME280;63673;49.928;8.150;2023-07-24T00:43:37;982.73;;;18.32;100
75089;BME280;63673;49.928;8.150;2023-07-24T00:44:39;982.81;;;18.32;100
75089;BME280;63673;49.928;8.150;2023-07-24T00:45:41;982.85;;;18.32;100
75089;BME280;63673;49.928;8.150;2023-07-24T00:46:43;982.9;;;18.32;100
75089;BME280;63673;49.928;8.150;2023-07-24T00:47:44;982.83;;;18.32;100
75089;BME280;63673;49.928;8.150;2023-07-24T00:48:46;982.85;;;18.32;100
75089;BME280;63673;49.928;8.150;2023-07-24T00:49:48;982.82;;;18.31;100
75089;BME280;63673;49.928;8.150;2023-07-24T00:50:50;982.87;;;18.31;100
75089;BME280;63673;49.928;8.150;2023-07-24T00:51:51;982.87;;;18.32;100
75089;BME280;63673;49.928;8.150;2023-07-24T00:52:53;982.92;;;18.31;100
75089;BME280;63673;49.928;8.150;2023-07-24T00:53:55;982.9;;;18.32;100
75089;BME280;63673;49.928;8.150;2023-07-24T00:54:56;982.89;;;18.31;100
75089;BME280;63673;49.928;8.150;2023-07-24T00:55:58;982.86;;;18.31;100
75089;BME280;63673;49.928;8.150;2023-07-24T00:57:00;982.84;;;18.31;100
75089;BME280;63673;49.928;8.150;2023-07-24T00:58:02;982.77;;;18.31;100
75089;BME280;63673;49.928;8.150;2023-07-24T00:59:03;982.81;;;18.32;100
75089;BME280;63673;49.928;8.150;2023-07-24T01:00:05;982.8;;;18.32;100
75089;BME280;63673;49.928;8.150;2023-07-24T01:01:07;982.78;;;18.32;100
75089;BME280;63673;49.928;8.150;2023-07-24T01:02:09;982.78;;;18.32;100
75089;BME280;63673;49.928;8.150;2023-07-24T01:03:11;982.76;;;18.32;100
75089;BME280;63673;49.928;8.150;2023-07-24T01:04:12;982.77;;;18.32;100
75089;BME280;63673;49.928;8.150;2023-07-24T01:05:14;982.74;;;18.31;100
75089;BME280;63673;49.928;8.150;2023-07-24T01:06:15;982.71;;;18.31;100
75089;BME280;63673;49.928;8.150;2023-07-24T01:07:17;982.68;;;18.3;100
75089;BME280;63673;49.928;8.150;2023-07-24T01:08:19;982.64;;;18.3;100
75089;BME280;63673;49.928;8.150;2023-07-24T01:09:21;982.61;;;18.3;100
75089;BME280;63673;49.928;8.150;2023-07-24T01:10:23;982.61;;;18.29;100
75089;BME280;63673;49.928;8.150;2023-07-24T01:11:25;982.57;;;18.29;100
75089;BME280;63673;49.928;8.150;2023-07-24T01:12:27;982.57;;;18.28;100
75089;BME280;63673;49.928;8.150;2023-07-24T01:13:28;982.51;;;18.28;100
75089;BME280;63673;49.928;8.150;2023-07-24T01:14:32;982.46;;;18.28;100
75089;BME280;63673;49.928;8.150;2023-07-24T01:15:32;982.51;;;18.28;100
75089;BME280;63673;49.928;8.150;2023-07-24T01:16:36;982.48;;;18.28;100
75089;BME280;63673;49.928;8.150;2023-07-24T01:17:35;982.51;;;18.28;100
75089;BME280;63673;49.928;8.150;2023-07-24T01:18:36;982.53;;;18.28;100
75089;BME280;63673;49.928;8.150;2023-07-24T01:19:40;982.5;;;18.28;100
75089;BME280;63673;49.928;8.150;2023-07-24T01:20:42;982.45;;;18.27;100
75089;BME280;63673;49.928;8.150;2023-07-24T01:21:44;982.4;;;18.27;100
75089;BME280;63673;49.928;8.150;2023-07-24T01:22:46;982.45;;;18.28;100
75089;BME280;63673;49.928;8.150;2023-07-24T01:23:49;982.42;;;18.27;100
75089;BME280;63673;49.928;8.150;2023-07-24T01:24:48;982.42;;;18.27;100
75089;BME280;63673;49.928;8.150;2023-07-24T01:25:53;982.45;;;18.27;100
75089;BME280;63673;49.928;8.150;2023-07-24T01:26:50;982.43;;;18.27;100
75089;BME280;63673;49.928;8.150;2023-07-24T01:27:52;982.41;;;18.27;100
75089;BME280;63673;49.928;8.150;2023-07-24T01:28:54;982.44;;;18.26;100
75089;BME280;63673;49.928;8.150;2023-07-24T01:29:56;982.41;;;18.27;100
75089;BME280;63673;49.928;8.150;2023-07-24T01:30:57;982.43;;;18.27;100
75089;BME280;63673;49.928;8.150;2023-07-24T01:31:59;982.47;;;18.26;100
75089;BME280;63673;49.928;8.150;2023-07-24T01:33:01;982.4;;;18.27;100
75089;BME280;63673;49.928;8.150;2023-07-24T01:34:02;982.44;;;18.27;100
75089;BME280;63673;49.928;8.150;2023-07-24T01:35:04;982.45;;;18.26;100
75089;BME280;63673;49.928;8.150;2023-07-24T01:36:06;982.44;;;18.27;100
75089;BME280;63673;49.928;8.150;2023-07-24T01:37:08;982.45;;;18.27;100
75089;BME280;63673;49.928;8.150;2023-07-24T01:38:09;982.46;;;18.27;100
75089;BME280;63673;49.928;8.150;2023-07-24T01:39:11;982.46;;;18.27;100
75089;BME280;63673;49.928;8.150;2023-07-24T01:40:13;982.37;;;18.27;100
75089;BME280;63673;49.928;8.150;2023-07-24T01:41:15;982.35;;;18.27;100
75089;BME280;63673;49.928;8.150;2023-07-24T01:42:16;982.35;;;18.27;100
75089;BME280;63673;49.928;8.150;2023-07-24T01:43:18;982.33;;;18.26;100
75089;BME280;63673;49.928;8.150;2023-07-24T01:44:20;982.26;;;18.27;100
75089;BME280;63673;49.928;8.150;2023-07-24T01:45:21;982.16;;;18.27;100
75089;BME280;63673;49.928;8.150;2023-07-24T01:46:23;982.16;;;18.28;100
75089;BME280;63673;49.928;8.150;2023-07-24T01:47:25;982.15;;;18.28;100
75089;BME280;63673;49.928;8.150;2023-07-24T01:48:27;982.09;;;18.29;100
75089;BME280;63673;49.928;8.150;2023-07-24T01:49:28;982.1;;;18.31;100
75089;BME280;63673;49.928;8.150;2023-07-24T01:50:30;982.05;;;18.31;100
75089;BME280;63673;49.928;8.150;2023-07-24T01:51:32;981.95;;;18.32;100
75089;BME280;63673;49.928;8.150;2023-07-24T01:52:34;981.96;;;18.33;100
75089;BME280;63673;49.928;8.150;2023-07-24T01:53:35;981.87;;;18.34;100
75089;BME280;63673;49.928;8.150;2023-07-24T01:54:37;981.9;;;18.34;100
75089;BME280;63673;49.928;8.150;2023-07-24T01:55:39;981.86;;;18.34;100
75089;BME280;63673;49.928;8.150;2023-07-24T01:56:40;981.79;;;18.35;100
75089;BME280;63673;49.928;8.150;2023-07-24T01:57:42;981.77;;;18.36;100
75089;BME280;63673;49.928;8.150;2023-07-24T01:58:44;981.74;;;18.35;100
75089;BME280;63673;49.928;8.150;2023-07-24T01:59:46;981.73;;;18.37;100
75089;BME280;63673;49.928;8.150;2023-07-24T02:00:47;981.72;;;18.38;100
75089;BME280;63673;49.928;8.150;2023-07-24T02:01:49;981.65;;;18.38;100
75089;BME280;63673;49.928;8.150;2023-07-24T02:02:51;981.63;;;18.37;100
75089;BME280;63673;49.928;8.150;2023-07-24T02:03:53;981.63;;;18.38;100
75089;BME280;63673;49.928;8.150;2023-07-24T02:04:55;981.64;;;18.38;100
75089;BME280;63673;49.928;8.150;2023-07-24T02:05:58;981.56;;;18.38;100
75089;BME280;63673;49.928;8.150;2023-07-24T02:06:58;981.6;;;18.39;100
75089;BME280;63673;49.928;8.150;2023-07-24T02:08:00;981.58;;;18.39;100
75089;BME280;63673;49.928;8.150;2023-07-24T02:09:01;981.68;;;18.39;100
75089;BME280;63673;49.928;8.150;2023-07-24T02:10:03;981.65;;;18.39;100
75089;BME280;63673;49.928;8.150;2023-07-24T02:11:05;981.7;;;18.4;100
75089;BME280;63673;49.928;8.150;2023-07-24T02:12:07;981.7;;;18.4;100
75089;BME280;63673;49.928;8.150;2023-07-24T02:13:08;981.72;;;18.39;100
75089;BME280;63673;49.928;8.150;2023-07-24T02:14:11;981.73;;;18.39;100
75089;BME280;63673;49.928;8.150;2023-07-24T02:15:12;981.74;;;18.38;100
75089;BME280;63673;49.928;8.150;2023-07-24T02:16:13;981.75;;;18.37;100
75089;BME280;63673;49.928;8.150;2023-07-24T02:17:15;981.82;;;18.35;100
75089;BME280;63673;49.928;8.150;2023-07-24T02:18:17;981.83;;;18.34;100
75089;BME280;63673;49.928;8.150;2023-07-24T02:19:19;981.84;;;18.33;100
75089;BME280;63673;49.928;8.150;2023-07-24T02:20:20;981.86;;;18.31;100
75089;BME280;63673;49.928;8.150;2023-07-24T02:21:22;981.88;;;18.28;100
75089;BME280;63673;49.928;8.150;2023-07-24T02:22:24;981.86;;;18.26;100
75089;BME280;63673;49.928;8.150;2023-07-24T02:23:26;981.89;;;18.24;100
75089;BME280;63673;49.928;8.150;2023-07-24T02:24:27;981.87;;;18.22;100
75089;BME280;63673;49.928;8.150;2023-07-24T02:25:29;981.91;;;18.19;100
75089;BME280;63673;49.928;8.150;2023-07-24T02:26:31;981.87;;;18.17;100
75089;BME280;63673;49.928;8.150;2023-07-24T02:27:33;981.86;;;18.15;100
75089;BME280;63673;49.928;8.150;2023-07-24T02:28:34;981.86;;;18.12;100
75089;BME280;63673;49.928;8.150;2023-07-24T02:29:36;981.83;;;18.1;100
75089;BME280;63673;49.928;8.150;2023-07-24T02:30:38;981.87;;;18.08;100
75089;BME280;63673;49.928;8.150;2023-07-24T02:31:39;981.85;;;18.05;100
75089;BME280;63673;49.928;8.150;2023-07-24T02:32:41;981.85;;;18.02;100
75089;BME280;63673;49.928;8.150;2023-07-24T02:33:43;981.87;;;17.99;100
75089;BME280;63673;49.928;8.150;2023-07-24T02:34:45;981.83;;;17.97;100
75089;BME280;63673;49.928;8.150;2023-07-24T02:35:46;981.9;;;17.95;100
75089;BME280;63673;49.928;8.150;2023-07-24T02:36:48;981.92;;;17.92;100
75089;BME280;63673;49.928;8.150;2023-07-24T02:37:50;981.9;;;17.89;100
75089;BME280;63673;49.928;8.150;2023-07-24T02:38:51;981.97;;;17.86;100
75089;BME280;63673;49.928;8.150;2023-07-24T02:39:54;982;;;17.83;100
75089;BME280;63673;49.928;8.150;2023-07-24T02:40:55;981.98;;;17.8;100
75089;BME280;63673;49.928;8.150;2023-07-24T02:41:57;982.01;;;17.78;100
75089;BME280;63673;49.928;8.150;2023-07-24T02:42:59;982.04;;;17.76;100
75089;BME280;63673;49.928;8.150;2023-07-24T02:44:01;982.02;;;17.73;100
75089;BME280;63673;49.928;8.150;2023-07-24T02:45:02;981.99;;;17.71;100
75089;BME280;63673;49.928;8.150;2023-07-24T02:46:04;981.96;;;17.7;100
75089;BME280;63673;49.928;8.150;2023-07-24T02:47:05;982.02;;;17.7;100
75089;BME280;63673;49.928;8.150;2023-07-24T02:48:07;982.03;;;17.69;100
75089;BME280;63673;49.928;8.150;2023-07-24T02:49:09;982.03;;;17.68;100
75089;BME280;63673;49.928;8.150;2023-07-24T02:50:11;982.02;;;17.68;100
75089;BME280;63673;49.928;8.150;2023-07-24T02:51:12;982.07;;;17.68;100
75089;BME280;63673;49.928;8.150;2023-07-24T02:52:14;982.06;;;17.68;100
75089;BME280;63673;49.928;8.150;2023-07-24T02:53:17;982.04;;;17.69;100
75089;BME280;63673;49.928;8.150;2023-07-24T02:54:18;982.01;;;17.69;100
75089;BME280;63673;49.928;8.150;2023-07-24T02:55:19;982.04;;;17.7;100
75089;BME280;63673;49.928;8.150;2023-07-24T02:56:21;982;;;17.71;100
75089;BME280;63673;49.928;8.150;2023-07-24T02:57:23;981.97;;;17.72;100
75089;BME280;63673;49.928;8.150;2023-07-24T02:58:25;981.97;;;17.73;100
75089;BME280;63673;49.928;8.150;2023-07-24T02:59:26;981.91;;;17.74;100
75089;BME280;63673;49.928;8.150;2023-07-24T03:00:28;981.82;;;17.76;100
75089;BME280;63673;49.928;8.150;2023-07-24T03:01:30;981.78;;;17.78;100
75089;BME280;63673;49.928;8.150;2023-07-24T03:02:31;981.67;;;17.8;100
75089;BME280;63673;49.928;8.150;2023-07-24T03:03:33;981.58;;;17.82;100
75089;BME280;63673;49.928;8.150;2023-07-24T03:04:35;981.6;;;17.83;100
75089;BME280;63673;49.928;8.150;2023-07-24T03:05:37;981.64;;;17.84;100
75089;BME280;63673;49.928;8.150;2023-07-24T03:06:38;981.68;;;17.85;100
75089;BME280;63673;49.928;8.150;2023-07-24T03:07:40;981.75;;;17.86;100
75089;BME280;63673;49.928;8.150;2023-07-24T03:08:42;981.77;;;17.86;100
75089;BME280;63673;49.928;8.150;2023-07-24T03:09:44;981.77;;;17.86;100
75089;BME280;63673;49.928;8.150;2023-07-24T03:10:45;981.74;;;17.86;100
75089;BME280;63673;49.928;8.150;2023-07-24T03:11:47;981.76;;;17.86;100
75089;BME280;63673;49.928;8.150;2023-07-24T03:18:24;981.74;;;17.86;100
75089;BME280;63673;49.928;8.150;2023-07-24T03:20:22;981.52;;;17.86;100
75089;BME280;63673;49.928;8.150;2023-07-24T03:21:28;981.51;;;17.85;100
75089;BME280;63673;49.928;8.150;2023-07-24T03:22:31;981.46;;;17.84;100
75089;BME280;63673;49.928;8.150;2023-07-24T03:23:38;981.39;;;17.83;100
75089;BME280;63673;49.928;8.150;2023-07-24T03:24:52;981.31;;;17.82;100
75089;BME280;63673;49.928;8.150;2023-07-24T03:25:54;981.36;;;17.81;100
75089;BME280;63673;49.928;8.150;2023-07-24T03:26:55;981.35;;;17.79;100
75089;BME280;63673;49.928;8.150;2023-07-24T03:27:57;981.34;;;17.79;100
75089;BME280;63673;49.928;8.150;2023-07-24T03:28:59;981.28;;;17.76;100
75089;BME280;63673;49.928;8.150;2023-07-24T03:30:01;981.26;;;17.76;100
75089;BME280;63673;49.928;8.150;2023-07-24T03:31:02;981.19;;;17.75;100
75089;BME280;63673;49.928;8.150;2023-07-24T03:32:04;981.25;;;17.74;100
75089;BME280;63673;49.928;8.150;2023-07-24T03:33:06;981.2;;;17.73;100
75089;BME280;63673;49.928;8.150;2023-07-24T03:34:08;981.2;;;17.72;100
75089;BME280;63673;49.928;8.150;2023-07-24T03:35:09;981.16;;;17.71;100
75089;BME280;63673;49.928;8.150;2023-07-24T03:36:11;981.18;;;17.71;100
75089;BME280;63673;49.928;8.150;2023-07-24T03:37:13;981.17;;;17.7;100
75089;BME280;63673;49.928;8.150;2023-07-24T03:38:14;981.08;;;17.69;100
75089;BME280;63673;49.928;8.150;2023-07-24T03:39:16;980.92;;;17.68;100
75089;BME280;63673;49.928;8.150;2023-07-24T03:40:18;980.83;;;17.67;100
75089;BME280;63673;49.928;8.150;2023-07-24T03:41:20;980.77;;;17.65;100
75089;BME280;63673;49.928;8.150;2023-07-24T03:42:25;980.67;;;17.63;100
75089;BME280;63673;49.928;8.150;2023-07-24T03:43:23;980.61;;;17.62;100
75089;BME280;63673;49.928;8.150;2023-07-24T03:44:25;980.65;;;17.6;100
75089;BME280;63673;49.928;8.150;2023-07-24T03:45:27;980.63;;;17.58;100
75089;BME280;63673;49.928;8.150;2023-07-24T03:46:28;980.55;;;17.56;100
75089;BME280;63673;49.928;8.150;2023-07-24T03:47:30;980.62;;;17.55;100
75089;BME280;63673;49.928;8.150;2023-07-24T03:48:32;980.6;;;17.53;100
75089;BME280;63673;49.928;8.150;2023-07-24T03:49:34;980.6;;;17.52;100
75089;BME280;63673;49.928;8.150;2023-07-24T03:50:35;980.65;;;17.5;100
75089;BME280;63673;49.928;8.150;2023-07-24T03:51:37;980.71;;;17.49;100
75089;BME280;63673;49.928;8.150;2023-07-24T03:52:39;980.83;;;17.48;100
75089;BME280;63673;49.928;8.150;2023-07-24T03:53:40;980.82;;;17.48;100
75089;BME280;63673;49.928;8.150;2023-07-24T03:54:42;980.93;;;17.47;100
75089;BME280;63673;49.928;8.150;2023-07-24T03:55:44;980.92;;;17.47;100
75089;BME280;63673;49.928;8.150;2023-07-24T03:56:46;980.92;;;17.46;100
75089;BME280;63673;49.928;8.150;2023-07-24T03:57:47;980.94;;;17.45;100
75089;BME280;63673;49.928;8.150;2023-07-24T03:58:49;980.97;;;17.45;100
75089;BME280;63673;49.928;8.150;2023-07-24T03:59:51;980.98;;;17.44;100
75089;BME280;63673;49.928;8.150;2023-07-24T04:00:53;980.98;;;17.43;100
75089;BME280;63673;49.928;8.150;2023-07-24T04:01:54;980.98;;;17.43;100
75089;BME280;63673;49.928;8.150;2023-07-24T04:02:56;980.95;;;17.43;100
75089;BME280;63673;49.928;8.150;2023-07-24T04:03:58;980.92;;;17.42;100
75089;BME280;63673;49.928;8.150;2023-07-24T04:05:00;980.9;;;17.42;100
75089;BME280;63673;49.928;8.150;2023-07-24T04:06:01;980.9;;;17.42;100
75089;BME280;63673;49.928;8.150;2023-07-24T04:07:03;980.91;;;17.42;100
75089;BME280;63673;49.928;8.150;2023-07-24T04:08:05;980.92;;;17.42;100
75089;BME280;63673;49.928;8.150;2023-07-24T04:09:06;980.92;;;17.42;100
75089;BME280;63673;49.928;8.150;2023-07-24T04:10:08;980.92;;;17.42;100
75089;BME280;63673;49.928;8.150;2023-07-24T04:11:10;980.95;;;17.41;100
75089;BME280;63673;49.928;8.150;2023-07-24T04:12:12;980.95;;;17.41;100
75089;BME280;63673;49.928;8.150;2023-07-24T04:13:13;980.98;;;17.41;100
75089;BME280;63673;49.928;8.150;2023-07-24T04:14:15;981.02;;;17.41;100
75089;BME280;63673;49.928;8.150;2023-07-24T04:15:17;981.04;;;17.39;100
75089;BME280;63673;49.928;8.150;2023-07-24T04:16:19;981.04;;;17.39;100
75089;BME280;63673;49.928;8.150;2023-07-24T04:17:21;981;;;17.39;100
75089;BME280;63673;49.928;8.150;2023-07-24T04:18:22;981.1;;;17.39;100
75089;BME280;63673;49.928;8.150;2023-07-24T04:19:24;981.09;;;17.39;100
75089;BME280;63673;49.928;8.150;2023-07-24T04:20:26;981.05;;;17.38;100
75089;BME280;63673;49.928;8.150;2023-07-24T04:21:27;981.03;;;17.39;100
75089;BME280;63673;49.928;8.150;2023-07-24T04:22:29;981.07;;;17.38;100
75089;BME280;63673;49.928;8.150;2023-07-24T04:23:31;981.1;;;17.39;100
75089;BME280;63673;49.928;8.150;2023-07-24T04:24:32;981.14;;;17.38;100
75089;BME280;63673;49.928;8.150;2023-07-24T04:25:34;981.15;;;17.38;100
75089;BME280;63673;49.928;8.150;2023-07-24T04:26:36;981.15;;;17.38;100
75089;BME280;63673;49.928;8.150;2023-07-24T04:27:38;981.18;;;17.39;100
75089;BME280;63673;49.928;8.150;2023-07-24T04:28:39;981.15;;;17.39;100
75089;BME280;63673;49.928;8.150;2023-07-24T04:29:41;981.13;;;17.39;100
75089;BME280;63673;49.928;8.150;2023-07-24T04:30:43;981.13;;;17.4;100
75089;BME280;63673;49.928;8.150;2023-07-24T04:31:45;981.08;;;17.4;100
75089;BME280;63673;49.928;8.150;2023-07-24T04:32:46;981.15;;;17.41;100
75089;BME280;63673;49.928;8.150;2023-07-24T04:33:48;981.14;;;17.42;100
75089;BME280;63673;49.928;8.150;2023-07-24T04:34:50;981.15;;;17.43;100
75089;BME280;63673;49.928;8.150;2023-07-24T04:35:52;981.15;;;17.45;100
75089;BME280;63673;49.928;8.150;2023-07-24T04:36:53;981.17;;;17.46;100
75089;BME280;63673;49.928;8.150;2023-07-24T04:37:55;981.17;;;17.47;100
75089;BME280;63673;49.928;8.150;2023-07-24T04:38:57;981.17;;;17.49;100
75089;BME280;63673;49.928;8.150;2023-07-24T04:39:58;981.22;;;17.5;100
75089;BME280;63673;49.928;8.150;2023-07-24T04:41:00;981.25;;;17.51;100
75089;BME280;63673;49.928;8.150;2023-07-24T04:42:02;981.24;;;17.52;100
75089;BME280;63673;49.928;8.150;2023-07-24T04:43:04;981.39;;;17.53;100
75089;BME280;63673;49.928;8.150;2023-07-24T04:44:05;981.44;;;17.54;100
75089;BME280;63673;49.928;8.150;2023-07-24T04:45:07;981.41;;;17.56;100
75089;BME280;63673;49.928;8.150;2023-07-24T04:46:09;981.38;;;17.57;100
75089;BME280;63673;49.928;8.150;2023-07-24T04:47:11;981.3;;;17.58;100
75089;BME280;63673;49.928;8.150;2023-07-24T04:48:12;981.26;;;17.6;100
75089;BME280;63673;49.928;8.150;2023-07-24T04:49:14;981.21;;;17.61;100
75089;BME280;63673;49.928;8.150;2023-07-24T04:50:16;981.07;;;17.61;100
75089;BME280;63673;49.928;8.150;2023-07-24T04:51:18;981.1;;;17.62;100
75089;BME280;63673;49.928;8.150;2023-07-24T04:52:19;981.1;;;17.63;100
75089;BME280;63673;49.928;8.150;2023-07-24T04:53:21;981.18;;;17.63;100
75089;BME280;63673;49.928;8.150;2023-07-24T04:54:23;981.14;;;17.65;100
75089;BME280;63673;49.928;8.150;2023-07-24T04:55:25;981.19;;;17.66;100
75089;BME280;63673;49.928;8.150;2023-07-24T04:56:26;981.19;;;17.67;100
75089;BME280;63673;49.928;8.150;2023-07-24T04:57:28;981.28;;;17.68;100
75089;BME280;63673;49.928;8.150;2023-07-24T04:58:30;981.24;;;17.69;100
75089;BME280;63673;49.928;8.150;2023-07-24T04:59:31;981.26;;;17.7;100
75089;BME280;63673;49.928;8.150;2023-07-24T05:00:33;981.32;;;17.71;100
75089;BME280;63673;49.928;8.150;2023-07-24T05:01:35;981.31;;;17.72;100
75089;BME280;63673;49.928;8.150;2023-07-24T05:02:37;981.35;;;17.72;100
75089;BME280;63673;49.928;8.150;2023-07-24T05:03:38;981.32;;;17.74;100
75089;BME280;63673;49.928;8.150;2023-07-24T05:04:40;981.36;;;17.74;100
75089;BME280;63673;49.928;8.150;2023-07-24T05:05:42;981.36;;;17.76;100
75089;BME280;63673;49.928;8.150;2023-07-24T05:06:44;981.45;;;17.77;100
75089;BME280;63673;49.928;8.150;2023-07-24T05:07:45;981.49;;;17.78;100
75089;BME280;63673;49.928;8.150;2023-07-24T05:08:47;981.5;;;17.79;100
75089;BME280;63673;49.928;8.150;2023-07-24T05:09:49;981.52;;;17.8;100
75089;BME280;63673;49.928;8.150;2023-07-24T05:10:54;981.48;;;17.82;100
75089;BME280;63673;49.928;8.150;2023-07-24T05:11:52;981.47;;;17.83;100
75089;BME280;63673;49.928;8.150;2023-07-24T05:12:54;981.47;;;17.85;100
75089;BME280;63673;49.928;8.150;2023-07-24T05:13:56;981.43;;;17.86;100
75089;BME280;63673;49.928;8.150;2023-07-24T05:14:57;981.44;;;17.87;100
75089;BME280;63673;49.928;8.150;2023-07-24T05:15:59;981.42;;;17.9;100
75089;BME280;63673;49.928;8.150;2023-07-24T05:17:01;981.32;;;17.92;100
75089;BME280;63673;49.928;8.150;2023-07-24T05:18:03;981.31;;;17.93;100
75089;BME280;63673;49.928;8.150;2023-07-24T05:19:04;981.26;;;17.96;100
75089;BME280;63673;49.928;8.150;2023-07-24T05:20:06;981.27;;;17.97;100
75089;BME280;63673;49.928;8.150;2023-07-24T05:21:08;981.24;;;17.99;100
75089;BME280;63673;49.928;8.150;2023-07-24T05:22:10;981.26;;;18.01;100
75089;BME280;63673;49.928;8.150;2023-07-24T05:23:11;981.24;;;18.02;100
75089;BME280;63673;49.928;8.150;2023-07-24T05:24:13;981.25;;;18.04;100
75089;BME280;63673;49.928;8.150;2023-07-24T05:25:17;981.24;;;18.04;100
75089;BME280;63673;49.928;8.150;2023-07-24T05:26:22;981.22;;;18.08;100
75089;BME280;63673;49.928;8.150;2023-07-24T05:27:23;981.16;;;18.1;100
75089;BME280;63673;49.928;8.150;2023-07-24T05:28:25;981.2;;;18.12;100
75089;BME280;63673;49.928;8.150;2023-07-24T05:29:27;981.24;;;18.13;100
75089;BME280;63673;49.928;8.150;2023-07-24T05:30:29;981.24;;;18.14;100
75089;BME280;63673;49.928;8.150;2023-07-24T05:31:33;981.26;;;18.15;100
75089;BME280;63673;49.928;8.150;2023-07-24T05:32:32;981.32;;;18.17;100
75089;BME280;63673;49.928;8.150;2023-07-24T05:33:33;981.26;;;18.18;100
75089;BME280;63673;49.928;8.150;2023-07-24T05:35:45;981.32;;;18.21;100
75089;BME280;63673;49.928;8.150;2023-07-24T05:36:53;981.27;;;18.23;100
75089;BME280;63673;49.928;8.150;2023-07-24T05:37:54;981.24;;;18.23;100
75089;BME280;63673;49.928;8.150;2023-07-24T05:38:55;981.2;;;18.24;100
75089;BME280;63673;49.928;8.150;2023-07-24T05:39:59;981.21;;;18.25;100
75089;BME280;63673;49.928;8.150;2023-07-24T05:41:19;981.19;;;18.27;100
75089;BME280;63673;49.928;8.150;2023-07-24T05:42:21;981.18;;;18.28;100
75089;BME280;63673;49.928;8.150;2023-07-24T05:43:46;981.18;;;18.31;100
75089;BME280;63673;49.928;8.150;2023-07-24T05:44:50;981.23;;;18.32;100
75089;BME280;63673;49.928;8.150;2023-07-24T05:45:52;981.19;;;18.33;100
75089;BME280;63673;49.928;8.150;2023-07-24T05:46:54;981.15;;;18.34;100
75089;BME280;63673;49.928;8.150;2023-07-24T05:47:56;981.19;;;18.35;100
75089;BME280;63673;49.928;8.150;2023-07-24T05:48:57;981.15;;;18.36;100
75089;BME280;63673;49.928;8.150;2023-07-24T05:49:59;981.16;;;18.37;100
75089;BME280;63673;49.928;8.150;2023-07-24T05:51:02;981.17;;;18.38;100
75089;BME280;63673;49.928;8.150;2023-07-24T05:52:03;981.18;;;18.38;100
75089;BME280;63673;49.928;8.150;2023-07-24T05:53:04;981.12;;;18.4;100
75089;BME280;63673;49.928;8.150;2023-07-24T05:54:07;981.14;;;18.41;100
75089;BME280;63673;49.928;8.150;2023-07-24T05:55:08;981.18;;;18.42;100